sensor_id;sensor_type;location;lat;lon;timestamp;P1;durP1;ratioP1;P2;durP2;ratioP2
24567;SDS011;12731;52.182;8.716;2022-10-17T00:02:23;4.47;;;4.07;;
24567;SDS011;12731;52.182;8.716;2022-10-17T00:04:49;4.70;;;4.20;;
24567;SDS011;12731;52.182;8.716;2022-10-17T00:07:16;8.70;;;5.18;;
24567;SDS011;12731;52.182;8.716;2022-10-17T00:09:42;5.55;;;4.80;;
24567;SDS011;12731;52.182;8.716;2022-10-17T00:12:09;6.38;;;5.40;;
24567;SDS011;12731;52.182;8.716;2022-10-17T00:14:36;6.05;;;4.30;;
24567;SDS011;12731;52.182;8.716;2022-10-17T00:17:02;7.25;;;4.80;;
24567;SDS011;12731;52.182;8.716;2022-10-17T00:19:29;5.55;;;4.82;;
24567;SDS011;12731;52.182;8.716;2022-10-17T00:21:55;5.22;;;4.72;;
24567;SDS011;12731;52.182;8.716;2022-10-17T00:24:21;5.72;;;5.13;;
24567;SDS011;12731;52.182;8.716;2022-10-17T00:26:48;4.95;;;4.45;;
24567;SDS011;12731;52.182;8.716;2022-10-17T00:29:14;4.70;;;4.28;;
24567;SDS011;12731;52.182;8.716;2022-10-17T00:31:41;4.78;;;4.38;;
24567;SDS011;12731;52.182;8.716;2022-10-17T00:34:07;4.57;;;4.13;;
24567;SDS011;12731;52.182;8.716;2022-10-17T00:36:34;4.45;;;4.05;;
24567;SDS011;12731;52.182;8.716;2022-10-17T00:39:00;5.15;;;4.28;;
24567;SDS011;12731;52.182;8.716;2022-10-17T00:41:28;4.63;;;4.18;;
24567;SDS011;12731;52.182;8.716;2022-10-17T00:46:27;6.50;;;4.30;;
24567;SDS011;12731;52.182;8.716;2022-10-17T00:48:59;6.50;;;4.53;;
24567;SDS011;12731;52.182;8.716;2022-10-17T00:51:40;4.95;;;4.45;;
24567;SDS011;12731;52.182;8.716;2022-10-17T00:54:08;5.13;;;4.60;;
24567;SDS011;12731;52.182;8.716;2022-10-17T00:56:37;6.57;;;5.45;;
24567;SDS011;12731;52.182;8.716;2022-10-17T00:59:06;5.88;;;5.28;;
24567;SDS011;12731;52.182;8.716;2022-10-17T01:01:34;6.70;;;4.18;;
24567;SDS011;12731;52.182;8.716;2022-10-17T01:04:01;5.00;;;4.20;;
24567;SDS011;12731;52.182;8.716;2022-10-17T01:09:27;5.30;;;4.80;;
24567;SDS011;12731;52.182;8.716;2022-10-17T01:12:06;4.78;;;4.30;;
24567;SDS011;12731;52.182;8.716;2022-10-17T01:14:45;4.80;;;4.40;;
24567;SDS011;12731;52.182;8.716;2022-10-17T01:20:28;5.13;;;4.20;;
24567;SDS011;12731;52.182;8.716;2022-10-17T01:34:31;4.68;;;4.13;;
24567;SDS011;12731;52.182;8.716;2022-10-17T01:37:03;5.22;;;4.60;;
24567;SDS011;12731;52.182;8.716;2022-10-17T01:50:58;5.38;;;4.40;;
24567;SDS011;12731;52.182;8.716;2022-10-17T01:53:32;6.82;;;4.50;;
24567;SDS011;12731;52.182;8.716;2022-10-17T01:56:01;5.82;;;4.30;;
24567;SDS011;12731;52.182;8.716;2022-10-17T01:58:33;7.22;;;4.90;;
24567;SDS011;12731;52.182;8.716;2022-10-17T02:01:03;4.80;;;4.35;;
24567;SDS011;12731;52.182;8.716;2022-10-17T02:03:31;6.00;;;4.50;;
24567;SDS011;12731;52.182;8.716;2022-10-17T02:05:59;4.57;;;4.13;;
24567;SDS011;12731;52.182;8.716;2022-10-17T02:08:27;5.05;;;4.55;;
24567;SDS011;12731;52.182;8.716;2022-10-17T02:16:18;6.07;;;4.28;;
24567;SDS011;12731;52.182;8.716;2022-10-17T02:19:52;5.40;;;4.43;;
24567;SDS011;12731;52.182;8.716;2022-10-17T02:24:43;5.43;;;4.10;;
24567;SDS011;12731;52.182;8.716;2022-10-17T02:30:08;5.10;;;4.47;;
24567;SDS011;12731;52.182;8.716;2022-10-17T02:35:18;7.10;;;5.70;;
24567;SDS011;12731;52.182;8.716;2022-10-17T02:37:45;5.30;;;4.80;;
24567;SDS011;12731;52.182;8.716;2022-10-17T02:40:12;6.15;;;5.32;;
24567;SDS011;12731;52.182;8.716;2022-10-17T02:42:41;7.75;;;5.75;;
24567;SDS011;12731;52.182;8.716;2022-10-17T02:45:09;9.95;;;6.20;;
24567;SDS011;12731;52.182;8.716;2022-10-17T02:47:36;6.43;;;5.60;;
24567;SDS011;12731;52.182;8.716;2022-10-17T02:50:06;7.72;;;6.90;;
24567;SDS011;12731;52.182;8.716;2022-10-17T02:52:34;7.82;;;6.60;;
24567;SDS011;12731;52.182;8.716;2022-10-17T02:57:45;9.43;;;6.35;;
24567;SDS011;12731;52.182;8.716;2022-10-17T03:00:15;8.25;;;6.47;;
24567;SDS011;12731;52.182;8.716;2022-10-17T03:02:43;7.53;;;6.07;;
24567;SDS011;12731;52.182;8.716;2022-10-17T03:05:18;6.82;;;5.90;;
24567;SDS011;12731;52.182;8.716;2022-10-17T03:07:46;7.35;;;6.15;;
24567;SDS011;12731;52.182;8.716;2022-10-17T03:10:12;7.47;;;5.88;;
24567;SDS011;12731;52.182;8.716;2022-10-17T03:12:39;9.23;;;5.90;;
24567;SDS011;12731;52.182;8.716;2022-10-17T03:15:05;8.75;;;5.95;;
24567;SDS011;12731;52.182;8.716;2022-10-17T03:17:32;6.85;;;5.82;;
24567;SDS011;12731;52.182;8.716;2022-10-17T03:19:59;8.65;;;5.95;;
24567;SDS011;12731;52.182;8.716;2022-10-17T03:22:25;7.70;;;5.70;;
24567;SDS011;12731;52.182;8.716;2022-10-17T03:24:52;7.45;;;5.85;;
24567;SDS011;12731;52.182;8.716;2022-10-17T03:27:18;10.52;;;5.68;;
24567;SDS011;12731;52.182;8.716;2022-10-17T03:29:45;9.65;;;5.60;;
24567;SDS011;12731;52.182;8.716;2022-10-17T03:32:11;6.72;;;5.43;;
24567;SDS011;12731;52.182;8.716;2022-10-17T03:34:38;6.15;;;5.55;;
24567;SDS011;12731;52.182;8.716;2022-10-17T03:37:04;6.95;;;5.35;;
24567;SDS011;12731;52.182;8.716;2022-10-17T03:39:30;6.13;;;5.28;;
24567;SDS011;12731;52.182;8.716;2022-10-17T03:41:57;7.47;;;5.47;;
24567;SDS011;12731;52.182;8.716;2022-10-17T03:44:23;6.15;;;5.53;;
24567;SDS011;12731;52.182;8.716;2022-10-17T03:46:50;8.02;;;5.40;;
24567;SDS011;12731;52.182;8.716;2022-10-17T03:49:16;9.00;;;5.70;;
24567;SDS011;12731;52.182;8.716;2022-10-17T03:51:43;6.38;;;5.55;;
24567;SDS011;12731;52.182;8.716;2022-10-17T03:54:09;8.93;;;5.50;;
24567;SDS011;12731;52.182;8.716;2022-10-17T03:56:36;6.03;;;5.30;;
24567;SDS011;12731;52.182;8.716;2022-10-17T03:59:02;6.35;;;5.30;;
24567;SDS011;12731;52.182;8.716;2022-10-17T04:01:29;5.93;;;5.20;;
24567;SDS011;12731;52.182;8.716;2022-10-17T04:03:55;7.55;;;5.65;;
24567;SDS011;12731;52.182;8.716;2022-10-17T04:06:22;6.68;;;5.15;;
24567;SDS011;12731;52.182;8.716;2022-10-17T04:08:49;5.40;;;4.75;;
24567;SDS011;12731;52.182;8.716;2022-10-17T04:11:16;7.40;;;5.18;;
24567;SDS011;12731;52.182;8.716;2022-10-17T04:13:44;7.88;;;4.88;;
24567;SDS011;12731;52.182;8.716;2022-10-17T04:16:15;8.30;;;4.85;;
24567;SDS011;12731;52.182;8.716;2022-10-17T04:18:42;6.30;;;4.90;;
24567;SDS011;12731;52.182;8.716;2022-10-17T04:21:09;5.45;;;4.88;;
24567;SDS011;12731;52.182;8.716;2022-10-17T04:23:36;5.90;;;4.82;;
24567;SDS011;12731;52.182;8.716;2022-10-17T04:26:03;7.38;;;5.10;;
24567;SDS011;12731;52.182;8.716;2022-10-17T04:28:30;5.85;;;5.00;;
24567;SDS011;12731;52.182;8.716;2022-10-17T04:31:01;7.05;;;5.05;;
24567;SDS011;12731;52.182;8.716;2022-10-17T04:33:29;7.78;;;4.85;;
24567;SDS011;12731;52.182;8.716;2022-10-17T04:36:00;9.23;;;4.85;;
24567;SDS011;12731;52.182;8.716;2022-10-17T04:38:28;6.30;;;4.75;;
24567;SDS011;12731;52.182;8.716;2022-10-17T04:40:58;5.50;;;4.65;;
24567;SDS011;12731;52.182;8.716;2022-10-17T04:43:33;6.80;;;4.60;;
24567;SDS011;12731;52.182;8.716;2022-10-17T04:46:02;6.47;;;4.60;;
24567;SDS011;12731;52.182;8.716;2022-10-17T04:48:30;5.20;;;4.38;;
24567;SDS011;12731;52.182;8.716;2022-10-17T04:50:59;5.25;;;4.55;;
24567;SDS011;12731;52.182;8.716;2022-10-17T04:53:27;5.72;;;4.88;;
24567;SDS011;12731;52.182;8.716;2022-10-17T04:55:56;6.22;;;4.47;;
24567;SDS011;12731;52.182;8.716;2022-10-17T04:58:22;7.40;;;4.90;;
24567;SDS011;12731;52.182;8.716;2022-10-17T05:00:49;7.28;;;5.00;;
24567;SDS011;12731;52.182;8.716;2022-10-17T05:03:15;5.93;;;5.00;;
24567;SDS011;12731;52.182;8.716;2022-10-17T05:05:42;5.60;;;4.82;;
24567;SDS011;12731;52.182;8.716;2022-10-17T05:08:09;7.65;;;4.95;;
24567;SDS011;12731;52.182;8.716;2022-10-17T05:10:36;6.82;;;5.72;;
24567;SDS011;12731;52.182;8.716;2022-10-17T05:13:04;8.50;;;6.00;;
24567;SDS011;12731;52.182;8.716;2022-10-17T05:15:30;5.80;;;4.60;;
24567;SDS011;12731;52.182;8.716;2022-10-17T05:17:57;5.20;;;4.70;;
24567;SDS011;12731;52.182;8.716;2022-10-17T05:20:23;4.78;;;4.28;;
24567;SDS011;12731;52.182;8.716;2022-10-17T05:22:50;7.15;;;4.70;;
24567;SDS011;12731;52.182;8.716;2022-10-17T05:25:16;6.15;;;4.40;;
24567;SDS011;12731;52.182;8.716;2022-10-17T05:27:43;6.40;;;4.57;;
24567;SDS011;12731;52.182;8.716;2022-10-17T05:30:09;7.32;;;4.85;;
24567;SDS011;12731;52.182;8.716;2022-10-17T05:32:37;5.05;;;4.25;;
24567;SDS011;12731;52.182;8.716;2022-10-17T05:35:03;9.43;;;4.65;;
24567;SDS011;12731;52.182;8.716;2022-10-17T05:37:30;5.90;;;4.32;;
24567;SDS011;12731;52.182;8.716;2022-10-17T05:39:57;6.43;;;4.78;;
24567;SDS011;12731;52.182;8.716;2022-10-17T05:42:23;8.88;;;4.53;;
24567;SDS011;12731;52.182;8.716;2022-10-17T05:44:50;7.53;;;4.57;;
24567;SDS011;12731;52.182;8.716;2022-10-17T05:47:16;5.95;;;4.70;;
24567;SDS011;12731;52.182;8.716;2022-10-17T05:49:43;7.60;;;4.68;;
24567;SDS011;12731;52.182;8.716;2022-10-17T05:52:17;7.05;;;4.55;;
24567;SDS011;12731;52.182;8.716;2022-10-17T05:54:43;7.88;;;4.25;;
24567;SDS011;12731;52.182;8.716;2022-10-17T05:57:10;6.25;;;4.28;;
24567;SDS011;12731;52.182;8.716;2022-10-17T05:59:37;7.40;;;4.55;;
24567;SDS011;12731;52.182;8.716;2022-10-17T06:02:03;6.88;;;4.65;;
24567;SDS011;12731;52.182;8.716;2022-10-17T06:04:30;6.53;;;4.35;;
24567;SDS011;12731;52.182;8.716;2022-10-17T06:06:56;7.30;;;4.90;;
24567;SDS011;12731;52.182;8.716;2022-10-17T06:09:23;7.60;;;4.85;;
24567;SDS011;12731;52.182;8.716;2022-10-17T06:11:49;6.05;;;4.80;;
24567;SDS011;12731;52.182;8.716;2022-10-17T06:14:16;6.60;;;4.55;;
24567;SDS011;12731;52.182;8.716;2022-10-17T06:16:42;5.72;;;4.20;;
24567;SDS011;12731;52.182;8.716;2022-10-17T06:19:09;6.78;;;4.70;;
24567;SDS011;12731;52.182;8.716;2022-10-17T06:21:36;7.55;;;4.50;;
24567;SDS011;12731;52.182;8.716;2022-10-17T06:24:03;5.00;;;4.50;;
24567;SDS011;12731;52.182;8.716;2022-10-17T06:26:30;5.22;;;4.40;;
24567;SDS011;12731;52.182;8.716;2022-10-17T06:28:56;4.88;;;4.25;;
24567;SDS011;12731;52.182;8.716;2022-10-17T06:31:23;9.18;;;4.57;;
24567;SDS011;12731;52.182;8.716;2022-10-17T06:33:49;6.43;;;4.55;;
24567;SDS011;12731;52.182;8.716;2022-10-17T06:36:16;9.23;;;5.00;;
24567;SDS011;12731;52.182;8.716;2022-10-17T06:38:42;7.72;;;5.00;;
24567;SDS011;12731;52.182;8.716;2022-10-17T06:41:10;7.63;;;4.40;;
24567;SDS011;12731;52.182;8.716;2022-10-17T06:43:42;6.45;;;3.95;;
24567;SDS011;12731;52.182;8.716;2022-10-17T06:46:12;6.85;;;4.28;;
24567;SDS011;12731;52.182;8.716;2022-10-17T06:48:39;7.15;;;5.28;;
24567;SDS011;12731;52.182;8.716;2022-10-17T06:51:06;7.07;;;6.07;;
24567;SDS011;12731;52.182;8.716;2022-10-17T06:53:34;5.78;;;4.95;;
24567;SDS011;12731;52.182;8.716;2022-10-17T06:56:01;7.03;;;5.40;;
24567;SDS011;12731;52.182;8.716;2022-10-17T06:58:29;8.02;;;5.10;;
24567;SDS011;12731;52.182;8.716;2022-10-17T07:01:04;5.47;;;4.35;;
24567;SDS011;12731;52.182;8.716;2022-10-17T07:03:32;6.30;;;5.22;;
24567;SDS011;12731;52.182;8.716;2022-10-17T07:05:59;9.13;;;4.85;;
24567;SDS011;12731;52.182;8.716;2022-10-17T07:08:25;5.35;;;4.80;;
24567;SDS011;12731;52.182;8.716;2022-10-17T07:10:52;7.13;;;4.90;;
24567;SDS011;12731;52.182;8.716;2022-10-17T07:13:19;5.68;;;4.90;;
24567;SDS011;12731;52.182;8.716;2022-10-17T07:15:46;7.20;;;4.63;;
24567;SDS011;12731;52.182;8.716;2022-10-17T07:18:12;5.03;;;4.53;;
24567;SDS011;12731;52.182;8.716;2022-10-17T07:20:39;9.30;;;4.95;;
24567;SDS011;12731;52.182;8.716;2022-10-17T07:23:06;6.57;;;4.55;;
24567;SDS011;12731;52.182;8.716;2022-10-17T07:25:32;6.43;;;4.30;;
24567;SDS011;12731;52.182;8.716;2022-10-17T07:28:04;5.47;;;4.13;;
24567;SDS011;12731;52.182;8.716;2022-10-17T07:30:31;7.28;;;4.03;;
24567;SDS011;12731;52.182;8.716;2022-10-17T07:32:58;5.75;;;3.63;;
24567;SDS011;12731;52.182;8.716;2022-10-17T07:35:24;6.05;;;4.07;;
24567;SDS011;12731;52.182;8.716;2022-10-17T07:37:51;5.30;;;3.90;;
24567;SDS011;12731;52.182;8.716;2022-10-17T07:40:17;7.25;;;4.05;;
24567;SDS011;12731;52.182;8.716;2022-10-17T07:42:43;9.07;;;4.32;;
24567;SDS011;12731;52.182;8.716;2022-10-17T07:45:10;4.90;;;3.75;;
24567;SDS011;12731;52.182;8.716;2022-10-17T07:47:36;8.23;;;3.80;;
24567;SDS011;12731;52.182;8.716;2022-10-17T07:50:04;6.15;;;3.55;;
24567;SDS011;12731;52.182;8.716;2022-10-17T07:52:31;5.07;;;4.15;;
24567;SDS011;12731;52.182;8.716;2022-10-17T07:54:57;6.20;;;3.83;;
24567;SDS011;12731;52.182;8.716;2022-10-17T07:57:24;8.65;;;4.25;;
24567;SDS011;12731;52.182;8.716;2022-10-17T07:59:51;4.57;;;4.00;;
24567;SDS011;12731;52.182;8.716;2022-10-17T08:02:20;7.80;;;4.05;;
24567;SDS011;12731;52.182;8.716;2022-10-17T08:04:48;4.38;;;3.97;;
24567;SDS011;12731;52.182;8.716;2022-10-17T08:07:15;5.43;;;3.90;;
24567;SDS011;12731;52.182;8.716;2022-10-17T08:09:50;4.10;;;3.42;;
24567;SDS011;12731;52.182;8.716;2022-10-17T08:12:17;5.68;;;3.40;;
24567;SDS011;12731;52.182;8.716;2022-10-17T08:14:43;7.38;;;3.85;;
24567;SDS011;12731;52.182;8.716;2022-10-17T08:17:10;4.05;;;3.30;;
24567;SDS011;12731;52.182;8.716;2022-10-17T08:19:37;7.28;;;3.95;;
24567;SDS011;12731;52.182;8.716;2022-10-17T08:22:04;7.38;;;3.33;;
24567;SDS011;12731;52.182;8.716;2022-10-17T08:24:31;7.25;;;3.60;;
24567;SDS011;12731;52.182;8.716;2022-10-17T08:26:57;5.75;;;3.53;;
24567;SDS011;12731;52.182;8.716;2022-10-17T08:29:25;5.63;;;3.60;;
24567;SDS011;12731;52.182;8.716;2022-10-17T08:31:52;10.32;;;3.10;;
24567;SDS011;12731;52.182;8.716;2022-10-17T08:34:26;5.72;;;3.35;;
24567;SDS011;12731;52.182;8.716;2022-10-17T08:36:53;6.80;;;3.25;;
24567;SDS011;12731;52.182;8.716;2022-10-17T08:39:19;5.63;;;3.38;;
24567;SDS011;12731;52.182;8.716;2022-10-17T08:47:36;6.28;;;3.38;;
24567;SDS011;12731;52.182;8.716;2022-10-17T08:50:06;3.60;;;3.30;;
24567;SDS011;12731;52.182;8.716;2022-10-17T08:52:37;4.90;;;3.33;;
24567;SDS011;12731;52.182;8.716;2022-10-17T08:55:20;4.25;;;3.38;;
24567;SDS011;12731;52.182;8.716;2022-10-17T08:57:56;4.72;;;3.25;;
24567;SDS011;12731;52.182;8.716;2022-10-17T09:00:23;4.32;;;3.20;;
24567;SDS011;12731;52.182;8.716;2022-10-17T09:03:08;4.85;;;3.42;;
24567;SDS011;12731;52.182;8.716;2022-10-17T09:05:49;5.28;;;3.35;;
24567;SDS011;12731;52.182;8.716;2022-10-17T09:10:54;5.35;;;3.08;;
24567;SDS011;12731;52.182;8.716;2022-10-17T09:19:17;3.95;;;3.08;;
24567;SDS011;12731;52.182;8.716;2022-10-17T09:21:48;7.93;;;3.28;;
24567;SDS011;12731;52.182;8.716;2022-10-17T09:24:26;4.55;;;3.05;;
24567;SDS011;12731;52.182;8.716;2022-10-17T09:26:53;3.60;;;3.17;;
24567;SDS011;12731;52.182;8.716;2022-10-17T09:29:23;8.07;;;3.40;;
24567;SDS011;12731;52.182;8.716;2022-10-17T09:32:07;5.50;;;3.10;;
24567;SDS011;12731;52.182;8.716;2022-10-17T09:34:38;7.35;;;2.97;;
24567;SDS011;12731;52.182;8.716;2022-10-17T09:37:04;4.25;;;3.05;;
24567;SDS011;12731;52.182;8.716;2022-10-17T09:39:37;3.83;;;3.22;;
24567;SDS011;12731;52.182;8.716;2022-10-17T09:42:03;5.18;;;3.22;;
24567;SDS011;12731;52.182;8.716;2022-10-17T09:44:31;5.25;;;3.00;;
24567;SDS011;12731;52.182;8.716;2022-10-17T09:47:01;4.93;;;3.08;;
24567;SDS011;12731;52.182;8.716;2022-10-17T09:49:31;3.45;;;2.80;;
24567;SDS011;12731;52.182;8.716;2022-10-17T09:51:59;5.50;;;3.00;;
24567;SDS011;12731;52.182;8.716;2022-10-17T09:54:35;8.23;;;3.15;;
24567;SDS011;12731;52.182;8.716;2022-10-17T09:57:07;3.83;;;2.83;;
24567;SDS011;12731;52.182;8.716;2022-10-17T09:59:39;4.60;;;3.00;;
24567;SDS011;12731;52.182;8.716;2022-10-17T10:02:23;9.13;;;3.10;;
24567;SDS011;12731;52.182;8.716;2022-10-17T10:05:05;7.05;;;3.40;;
24567;SDS011;12731;52.182;8.716;2022-10-17T10:07:59;3.28;;;2.80;;
24567;SDS011;12731;52.182;8.716;2022-10-17T10:10:29;6.05;;;2.97;;
24567;SDS011;12731;52.182;8.716;2022-10-17T10:13:01;4.75;;;2.72;;
24567;SDS011;12731;52.182;8.716;2022-10-17T10:15:36;3.25;;;2.95;;
24567;SDS011;12731;52.182;8.716;2022-10-17T10:18:25;5.78;;;2.80;;
24567;SDS011;12731;52.182;8.716;2022-10-17T10:23:35;4.85;;;3.00;;
24567;SDS011;12731;52.182;8.716;2022-10-17T10:28:37;6.10;;;3.20;;
24567;SDS011;12731;52.182;8.716;2022-10-17T10:31:05;6.65;;;2.83;;
24567;SDS011;12731;52.182;8.716;2022-10-17T10:33:34;5.60;;;2.70;;
24567;SDS011;12731;52.182;8.716;2022-10-17T10:36:06;7.32;;;3.00;;
24567;SDS011;12731;52.182;8.716;2022-10-17T10:38:33;5.78;;;2.60;;
24567;SDS011;12731;52.182;8.716;2022-10-17T10:41:01;4.10;;;3.00;;
24567;SDS011;12731;52.182;8.716;2022-10-17T10:46:16;6.85;;;2.92;;
24567;SDS011;12731;52.182;8.716;2022-10-17T10:48:54;5.28;;;2.70;;
24567;SDS011;12731;52.182;8.716;2022-10-17T10:51:34;4.10;;;2.50;;
24567;SDS011;12731;52.182;8.716;2022-10-17T10:57:15;6.85;;;2.90;;
24567;SDS011;12731;52.182;8.716;2022-10-17T10:59:52;5.23;;;2.60;;
24567;SDS011;12731;52.182;8.716;2022-10-17T11:02:23;7.35;;;2.67;;
24567;SDS011;12731;52.182;8.716;2022-10-17T11:07:34;3.60;;;2.65;;
24567;SDS011;12731;52.182;8.716;2022-10-17T11:12:52;5.28;;;2.72;;
24567;SDS011;12731;52.182;8.716;2022-10-17T11:15:43;4.60;;;2.83;;
24567;SDS011;12731;52.182;8.716;2022-10-17T11:18:25;5.93;;;2.75;;
24567;SDS011;12731;52.182;8.716;2022-10-17T11:26:24;8.38;;;3.22;;
24567;SDS011;12731;52.182;8.716;2022-10-17T11:28:53;7.00;;;3.17;;
24567;SDS011;12731;52.182;8.716;2022-10-17T11:31:21;11.70;;;3.03;;
24567;SDS011;12731;52.182;8.716;2022-10-17T11:34:00;6.45;;;2.88;;
24567;SDS011;12731;52.182;8.716;2022-10-17T11:36:31;6.85;;;3.50;;
24567;SDS011;12731;52.182;8.716;2022-10-17T11:41:40;4.57;;;2.90;;
24567;SDS011;12731;52.182;8.716;2022-10-17T11:44:25;3.45;;;2.60;;
24567;SDS011;12731;52.182;8.716;2022-10-17T11:47:22;7.75;;;2.80;;
24567;SDS011;12731;52.182;8.716;2022-10-17T11:49:46;5.28;;;2.97;;
24567;SDS011;12731;52.182;8.716;2022-10-17T11:52:34;7.72;;;3.45;;
24567;SDS011;12731;52.182;8.716;2022-10-17T11:55:25;5.97;;;3.03;;
24567;SDS011;12731;52.182;8.716;2022-10-17T11:58:12;5.25;;;2.72;;
24567;SDS011;12731;52.182;8.716;2022-10-17T12:00:52;5.82;;;2.70;;
24567;SDS011;12731;52.182;8.716;2022-10-17T12:06:15;9.50;;;3.28;;
24567;SDS011;12731;52.182;8.716;2022-10-17T12:08:50;6.45;;;3.20;;
24567;SDS011;12731;52.182;8.716;2022-10-17T12:11:49;7.15;;;2.90;;
24567;SDS011;12731;52.182;8.716;2022-10-17T12:17:01;5.90;;;3.10;;
24567;SDS011;12731;52.182;8.716;2022-10-17T12:19:28;7.97;;;3.42;;
24567;SDS011;12731;52.182;8.716;2022-10-17T12:21:59;5.93;;;3.00;;
24567;SDS011;12731;52.182;8.716;2022-10-17T12:24:33;7.05;;;3.45;;
24567;SDS011;12731;52.182;8.716;2022-10-17T12:32:37;7.97;;;3.38;;
24567;SDS011;12731;52.182;8.716;2022-10-17T12:35:31;5.70;;;3.45;;
24567;SDS011;12731;52.182;8.716;2022-10-17T12:37:59;7.35;;;3.67;;
24567;SDS011;12731;52.182;8.716;2022-10-17T12:42:59;5.40;;;3.45;;
24567;SDS011;12731;52.182;8.716;2022-10-17T12:56:41;6.97;;;4.10;;
24567;SDS011;12731;52.182;8.716;2022-10-17T12:59:15;5.95;;;4.10;;
24567;SDS011;12731;52.182;8.716;2022-10-17T13:01:44;9.63;;;4.28;;
24567;SDS011;12731;52.182;8.716;2022-10-17T13:04:13;8.20;;;4.10;;
24567;SDS011;12731;52.182;8.716;2022-10-17T13:06:44;7.22;;;4.28;;
24567;SDS011;12731;52.182;8.716;2022-10-17T13:11:49;10.77;;;4.32;;
24567;SDS011;12731;52.182;8.716;2022-10-17T13:14:17;6.28;;;4.53;;
24567;SDS011;12731;52.182;8.716;2022-10-17T13:17:04;9.10;;;4.00;;
24567;SDS011;12731;52.182;8.716;2022-10-17T13:22:10;6.10;;;4.30;;
24567;SDS011;12731;52.182;8.716;2022-10-17T13:24:39;7.43;;;3.80;;
24567;SDS011;12731;52.182;8.716;2022-10-17T13:27:20;7.07;;;4.18;;
24567;SDS011;12731;52.182;8.716;2022-10-17T13:29:48;9.65;;;4.18;;
24567;SDS011;12731;52.182;8.716;2022-10-17T13:32:15;8.52;;;4.15;;
24567;SDS011;12731;52.182;8.716;2022-10-17T13:34:41;7.25;;;4.03;;
24567;SDS011;12731;52.182;8.716;2022-10-17T13:37:09;8.43;;;3.92;;
24567;SDS011;12731;52.182;8.716;2022-10-17T13:39:39;13.82;;;4.30;;
24567;SDS011;12731;52.182;8.716;2022-10-17T13:42:27;6.40;;;3.63;;
24567;SDS011;12731;52.182;8.716;2022-10-17T13:44:55;6.65;;;3.67;;
24567;SDS011;12731;52.182;8.716;2022-10-17T13:47:23;7.22;;;3.60;;
24567;SDS011;12731;52.182;8.716;2022-10-17T13:49:52;6.97;;;3.40;;
24567;SDS011;12731;52.182;8.716;2022-10-17T13:52:21;7.63;;;3.85;;
24567;SDS011;12731;52.182;8.716;2022-10-17T13:54:50;8.77;;;3.72;;
24567;SDS011;12731;52.182;8.716;2022-10-17T13:59:46;7.20;;;3.90;;
24567;SDS011;12731;52.182;8.716;2022-10-17T14:02:25;7.15;;;3.63;;
24567;SDS011;12731;52.182;8.716;2022-10-17T14:05:03;8.80;;;3.88;;
24567;SDS011;12731;52.182;8.716;2022-10-17T14:07:50;5.88;;;3.42;;
24567;SDS011;12731;52.182;8.716;2022-10-17T14:10:38;9.40;;;3.95;;
24567;SDS011;12731;52.182;8.716;2022-10-17T14:13:06;6.80;;;3.60;;
24567;SDS011;12731;52.182;8.716;2022-10-17T14:15:34;8.73;;;3.65;;
24567;SDS011;12731;52.182;8.716;2022-10-17T14:18:05;8.60;;;3.88;;
24567;SDS011;12731;52.182;8.716;2022-10-17T14:20:34;6.10;;;4.05;;
24567;SDS011;12731;52.182;8.716;2022-10-17T14:26:21;8.80;;;3.63;;
24567;SDS011;12731;52.182;8.716;2022-10-17T14:29:05;6.47;;;3.80;;
24567;SDS011;12731;52.182;8.716;2022-10-17T14:31:47;5.25;;;3.40;;
24567;SDS011;12731;52.182;8.716;2022-10-17T14:34:19;8.60;;;3.63;;
24567;SDS011;12731;52.182;8.716;2022-10-17T14:36:50;8.02;;;3.50;;
24567;SDS011;12731;52.182;8.716;2022-10-17T14:39:18;8.60;;;3.67;;
24567;SDS011;12731;52.182;8.716;2022-10-17T14:41:47;7.78;;;3.55;;
24567;SDS011;12731;52.182;8.716;2022-10-17T14:44:16;5.28;;;3.45;;
24567;SDS011;12731;52.182;8.716;2022-10-17T14:46:45;9.40;;;3.70;;
24567;SDS011;12731;52.182;8.716;2022-10-17T14:49:17;5.25;;;4.00;;
24567;SDS011;12731;52.182;8.716;2022-10-17T14:54:40;7.05;;;3.80;;
24567;SDS011;12731;52.182;8.716;2022-10-17T14:59:43;5.85;;;3.80;;
24567;SDS011;12731;52.182;8.716;2022-10-17T15:02:20;9.98;;;4.00;;
24567;SDS011;12731;52.182;8.716;2022-10-17T15:04:47;7.55;;;3.60;;
24567;SDS011;12731;52.182;8.716;2022-10-17T15:07:15;9.73;;;3.78;;
24567;SDS011;12731;52.182;8.716;2022-10-17T15:09:42;7.57;;;3.55;;
24567;SDS011;12731;52.182;8.716;2022-10-17T15:12:19;11.10;;;4.07;;
24567;SDS011;12731;52.182;8.716;2022-10-17T15:14:47;8.20;;;4.10;;
24567;SDS011;12731;52.182;8.716;2022-10-17T15:17:18;8.93;;;3.90;;
24567;SDS011;12731;52.182;8.716;2022-10-17T15:19:47;6.28;;;3.60;;
24567;SDS011;12731;52.182;8.716;2022-10-17T15:22:13;9.20;;;3.72;;
24567;SDS011;12731;52.182;8.716;2022-10-17T15:24:41;8.20;;;3.65;;
24567;SDS011;12731;52.182;8.716;2022-10-17T15:27:20;3.83;;;3.30;;
24567;SDS011;12731;52.182;8.716;2022-10-17T15:29:48;5.93;;;3.50;;
24567;SDS011;12731;52.182;8.716;2022-10-17T15:32:15;5.90;;;3.85;;
24567;SDS011;12731;52.182;8.716;2022-10-17T15:34:42;6.85;;;3.90;;
24567;SDS011;12731;52.182;8.716;2022-10-17T15:37:19;7.88;;;3.88;;
24567;SDS011;12731;52.182;8.716;2022-10-17T15:39:48;4.57;;;3.47;;
24567;SDS011;12731;52.182;8.716;2022-10-17T15:42:20;6.00;;;3.55;;
24567;SDS011;12731;52.182;8.716;2022-10-17T15:44:47;9.38;;;4.20;;
24567;SDS011;12731;52.182;8.716;2022-10-17T15:47:21;7.22;;;3.80;;
24567;SDS011;12731;52.182;8.716;2022-10-17T15:49:49;8.95;;;4.00;;
24567;SDS011;12731;52.182;8.716;2022-10-17T15:52:15;7.18;;;3.95;;
24567;SDS011;12731;52.182;8.716;2022-10-17T15:54:42;6.85;;;3.92;;
24567;SDS011;12731;52.182;8.716;2022-10-17T15:57:19;6.85;;;3.35;;
24567;SDS011;12731;52.182;8.716;2022-10-17T15:59:50;10.02;;;3.97;;
24567;SDS011;12731;52.182;8.716;2022-10-17T16:02:17;5.93;;;3.65;;
24567;SDS011;12731;52.182;8.716;2022-10-17T16:04:45;7.18;;;4.10;;
24567;SDS011;12731;52.182;8.716;2022-10-17T16:07:12;9.13;;;4.13;;
24567;SDS011;12731;52.182;8.716;2022-10-17T16:09:39;10.68;;;3.97;;
24567;SDS011;12731;52.182;8.716;2022-10-17T16:12:06;9.30;;;3.80;;
24567;SDS011;12731;52.182;8.716;2022-10-17T16:14:37;13.20;;;3.95;;
24567;SDS011;12731;52.182;8.716;2022-10-17T16:17:03;10.05;;;4.13;;
24567;SDS011;12731;52.182;8.716;2022-10-17T16:19:29;6.30;;;3.78;;
24567;SDS011;12731;52.182;8.716;2022-10-17T16:21:56;9.10;;;4.25;;
24567;SDS011;12731;52.182;8.716;2022-10-17T16:24:27;7.82;;;3.95;;
24567;SDS011;12731;52.182;8.716;2022-10-17T16:26:53;8.63;;;4.28;;
24567;SDS011;12731;52.182;8.716;2022-10-17T16:29:20;6.45;;;4.60;;
24567;SDS011;12731;52.182;8.716;2022-10-17T16:31:46;7.55;;;4.82;;
24567;SDS011;12731;52.182;8.716;2022-10-17T16:34:13;8.25;;;3.97;;
24567;SDS011;12731;52.182;8.716;2022-10-17T16:36:41;10.45;;;4.10;;
24567;SDS011;12731;52.182;8.716;2022-10-17T16:39:07;7.45;;;4.57;;
24567;SDS011;12731;52.182;8.716;2022-10-17T16:41:37;4.75;;;3.85;;
24567;SDS011;12731;52.182;8.716;2022-10-17T16:44:06;6.07;;;4.20;;
24567;SDS011;12731;52.182;8.716;2022-10-17T16:46:34;7.07;;;4.60;;
24567;SDS011;12731;52.182;8.716;2022-10-17T16:49:02;8.57;;;5.00;;
24567;SDS011;12731;52.182;8.716;2022-10-17T16:51:30;10.40;;;4.60;;
24567;SDS011;12731;52.182;8.716;2022-10-17T16:53:58;7.65;;;4.93;;
24567;SDS011;12731;52.182;8.716;2022-10-17T16:56:25;8.45;;;4.85;;
24567;SDS011;12731;52.182;8.716;2022-10-17T16:58:54;9.20;;;4.93;;
24567;SDS011;12731;52.182;8.716;2022-10-17T17:01:22;9.20;;;5.25;;
24567;SDS011;12731;52.182;8.716;2022-10-17T17:03:50;10.55;;;5.70;;
24567;SDS011;12731;52.182;8.716;2022-10-17T17:06:21;9.95;;;5.88;;
24567;SDS011;12731;52.182;8.716;2022-10-17T17:08:49;7.93;;;5.72;;
24567;SDS011;12731;52.182;8.716;2022-10-17T17:11:16;8.70;;;5.97;;
24567;SDS011;12731;52.182;8.716;2022-10-17T17:13:44;8.20;;;5.60;;